sensor_id;sensor_type;location;lat;lon;timestamp;temperature;humidity
3942;DHT22;1985;48.592;8.850;2024-02-26T00:01:01;7.90;94.70
3942;DHT22;1985;48.592;8.850;2024-02-26T00:03:27;7.90;95.30
3942;DHT22;1985;48.592;8.850;2024-02-26T00:05:53;7.90;95.40
3942;DHT22;1985;48.592;8.850;2024-02-26T00:08:18;7.90;95.60
3942;DHT22;1985;48.592;8.850;2024-02-26T00:10:44;7.90;95.80
3942;DHT22;1985;48.592;8.850;2024-02-26T00:13:10;8.00;95.80
3942;DHT22;1985;48.592;8.850;2024-02-26T00:15:35;7.90;95.80
3942;DHT22;1985;48.592;8.850;2024-02-26T00:18:01;8.00;95.80
3942;DHT22;1985;48.592;8.850;2024-02-26T00:20:27;8.00;96.30
3942;DHT22;1985;48.592;8.850;2024-02-26T00:22:52;8.00;96.30
3942;DHT22;1985;48.592;8.850;2024-02-26T00:25:18;7.80;96.60
3942;DHT22;1985;48.592;8.850;2024-02-26T00:27:44;7.70;97.10
3942;DHT22;1985;48.592;8.850;2024-02-26T00:30:10;7.70;97.10
3942;DHT22;1985;48.592;8.850;2024-02-26T00:32:36;7.70;96.40
3942;DHT22;1985;48.592;8.850;2024-02-26T00:35:02;7.60;96.10
3942;DHT22;1985;48.592;8.850;2024-02-26T00:37:27;7.20;94.90
3942;DHT22;1985;48.592;8.850;2024-02-26T00:39:53;7.30;96.00
3942;DHT22;1985;48.592;8.850;2024-02-26T00:42:19;7.40;96.30
3942;DHT22;1985;48.592;8.850;2024-02-26T00:44:45;7.50;96.40
3942;DHT22;1985;48.592;8.850;2024-02-26T00:47:10;7.60;96.70
3942;DHT22;1985;48.592;8.850;2024-02-26T00:49:37;7.60;97.00
3942;DHT22;1985;48.592;8.850;2024-02-26T00:52:02;7.70;97.10
3942;DHT22;1985;48.592;8.850;2024-02-26T00:54:28;7.70;96.90
3942;DHT22;1985;48.592;8.850;2024-02-26T00:56:54;7.70;96.70
3942;DHT22;1985;48.592;8.850;2024-02-26T00:59:20;7.60;95.10
3942;DHT22;1985;48.592;8.850;2024-02-26T01:01:45;7.30;95.40
3942;DHT22;1985;48.592;8.850;2024-02-26T01:04:11;7.40;95.50
3942;DHT22;1985;48.592;8.850;2024-02-26T01:06:37;7.40;95.50
3942;DHT22;1985;48.592;8.850;2024-02-26T01:09:03;7.50;95.70
3942;DHT22;1985;48.592;8.850;2024-02-26T01:11:29;7.50;95.70
3942;DHT22;1985;48.592;8.850;2024-02-26T01:13:55;7.60;96.00
3942;DHT22;1985;48.592;8.850;2024-02-26T01:16:23;7.60;95.60
3942;DHT22;1985;48.592;8.850;2024-02-26T01:18:48;7.60;95.40
3942;DHT22;1985;48.592;8.850;2024-02-26T01:21:14;7.60;95.30
3942;DHT22;1985;48.592;8.850;2024-02-26T01:23:40;7.70;95.60
3942;DHT22;1985;48.592;8.850;2024-02-26T01:26:05;7.70;95.40
3942;DHT22;1985;48.592;8.850;2024-02-26T01:28:31;7.70;95.60
3942;DHT22;1985;48.592;8.850;2024-02-26T01:30:57;7.80;93.70
3942;DHT22;1985;48.592;8.850;2024-02-26T01:33:25;7.70;92.10
3942;DHT22;1985;48.592;8.850;2024-02-26T01:35:51;7.60;91.90
3942;DHT22;1985;48.592;8.850;2024-02-26T01:38:17;7.70;93.30
3942;DHT22;1985;48.592;8.850;2024-02-26T01:40:42;7.70;93.70
3942;DHT22;1985;48.592;8.850;2024-02-26T01:43:08;7.70;94.30
3942;DHT22;1985;48.592;8.850;2024-02-26T01:45:33;7.60;95.00
3942;DHT22;1985;48.592;8.850;2024-02-26T01:47:59;7.50;95.90
3942;DHT22;1985;48.592;8.850;2024-02-26T01:50:26;7.50;96.70
3942;DHT22;1985;48.592;8.850;2024-02-26T01:52:53;7.30;97.30
3942;DHT22;1985;48.592;8.850;2024-02-26T01:55:20;7.30;98.10
3942;DHT22;1985;48.592;8.850;2024-02-26T01:57:49;7.30;96.90
3942;DHT22;1985;48.592;8.850;2024-02-26T02:00:14;7.30;96.90
3942;DHT22;1985;48.592;8.850;2024-02-26T02:02:42;7.20;97.30
3942;DHT22;1985;48.592;8.850;2024-02-26T02:05:10;7.20;98.00
3942;DHT22;1985;48.592;8.850;2024-02-26T02:07:37;7.30;98.50
3942;DHT22;1985;48.592;8.850;2024-02-26T02:10:03;7.40;96.60
3942;DHT22;1985;48.592;8.850;2024-02-26T02:12:31;7.30;97.20
3942;DHT22;1985;48.592;8.850;2024-02-26T02:14:58;7.40;97.80
3942;DHT22;1985;48.592;8.850;2024-02-26T02:17:24;7.50;97.70
3942;DHT22;1985;48.592;8.850;2024-02-26T02:19:50;7.60;97.90
3942;DHT22;1985;48.592;8.850;2024-02-26T02:22:15;7.60;98.40
3942;DHT22;1985;48.592;8.850;2024-02-26T02:24:41;7.60;98.70
3942;DHT22;1985;48.592;8.850;2024-02-26T02:27:07;7.70;98.70
3942;DHT22;1985;48.592;8.850;2024-02-26T02:29:32;7.70;98.70
3942;DHT22;1985;48.592;8.850;2024-02-26T02:31:59;7.80;98.10
3942;DHT22;1985;48.592;8.850;2024-02-26T02:34:26;7.70;97.10
3942;DHT22;1985;48.592;8.850;2024-02-26T02:36:53;7.80;97.50
3942;DHT22;1985;48.592;8.850;2024-02-26T02:39:18;7.80;97.60
3942;DHT22;1985;48.592;8.850;2024-02-26T02:41:44;7.80;97.90
3942;DHT22;1985;48.592;8.850;2024-02-26T02:44:10;7.70;98.90
3942;DHT22;1985;48.592;8.850;2024-02-26T02:46:36;7.30;98.10
3942;DHT22;1985;48.592;8.850;2024-02-26T02:49:02;7.30;99.30
3942;DHT22;1985;48.592;8.850;2024-02-26T02:51:28;7.20;99.30
3942;DHT22;1985;48.592;8.850;2024-02-26T02:53:53;6.80;96.90
3942;DHT22;1985;48.592;8.850;2024-02-26T02:56:19;6.70;97.90
3942;DHT22;1985;48.592;8.850;2024-02-26T02:58:45;6.50;99.90
3942;DHT22;1985;48.592;8.850;2024-02-26T03:01:10;6.40;99.90
3942;DHT22;1985;48.592;8.850;2024-02-26T03:03:38;6.30;99.90
3942;DHT22;1985;48.592;8.850;2024-02-26T03:06:04;6.20;99.90
3942;DHT22;1985;48.592;8.850;2024-02-26T03:08:29;6.20;99.90
3942;DHT22;1985;48.592;8.850;2024-02-26T03:10:55;6.20;99.90
3942;DHT22;1985;48.592;8.850;2024-02-26T03:13:21;6.40;99.90
3942;DHT22;1985;48.592;8.850;2024-02-26T03:15:47;6.50;99.90
3942;DHT22;1985;48.592;8.850;2024-02-26T03:18:12;6.60;99.90
3942;DHT22;1985;48.592;8.850;2024-02-26T03:20:38;6.70;99.90
3942;DHT22;1985;48.592;8.850;2024-02-26T03:23:04;6.80;99.90
3942;DHT22;1985;48.592;8.850;2024-02-26T03:25:29;6.90;99.90
3942;DHT22;1985;48.592;8.850;2024-02-26T03:27:55;6.90;99.90
3942;DHT22;1985;48.592;8.850;2024-02-26T03:30:21;6.90;99.90
3942;DHT22;1985;48.592;8.850;2024-02-26T03:32:46;7.00;99.90
3942;DHT22;1985;48.592;8.850;2024-02-26T03:35:13;7.00;99.90
3942;DHT22;1985;48.592;8.850;2024-02-26T03:37:38;6.90;99.90
3942;DHT22;1985;48.592;8.850;2024-02-26T03:40:05;6.90;99.90
3942;DHT22;1985;48.592;8.850;2024-02-26T03:42:31;6.80;99.90
3942;DHT22;1985;48.592;8.850;2024-02-26T03:44:57;6.60;99.90
3942;DHT22;1985;48.592;8.850;2024-02-26T03:47:22;6.40;99.90
3942;DHT22;1985;48.592;8.850;2024-02-26T03:49:48;6.30;99.90
3942;DHT22;1985;48.592;8.850;2024-02-26T03:52:14;6.30;99.90
3942;DHT22;1985;48.592;8.850;2024-02-26T03:54:40;6.30;99.90
3942;DHT22;1985;48.592;8.850;2024-02-26T03:57:06;6.50;99.90
3942;DHT22;1985;48.592;8.850;2024-02-26T03:59:31;6.60;99.90
3942;DHT22;1985;48.592;8.850;2024-02-26T04:01:57;6.60;99.90
3942;DHT22;1985;48.592;8.850;2024-02-26T04:04:22;6.30;99.90
3942;DHT22;1985;48.592;8.850;2024-02-26T04:06:48;6.20;99.90
3942;DHT22;1985;48.592;8.850;2024-02-26T04:09:14;6.30;99.90
3942;DHT22;1985;48.592;8.850;2024-02-26T04:11:40;6.50;99.90
3942;DHT22;1985;48.592;8.850;2024-02-26T04:14:05;6.60;99.90
3942;DHT22;1985;48.592;8.850;2024-02-26T04:16:37;6.30;99.90
3942;DHT22;1985;48.592;8.850;2024-02-26T04:19:02;6.20;99.90
3942;DHT22;1985;48.592;8.850;2024-02-26T04:21:28;6.40;99.90
3942;DHT22;1985;48.592;8.850;2024-02-26T04:23:54;6.60;99.90
3942;DHT22;1985;48.592;8.850;2024-02-26T04:26:26;6.70;99.90
3942;DHT22;1985;48.592;8.850;2024-02-26T04:28:51;6.80;99.90
3942;DHT22;1985;48.592;8.850;2024-02-26T04:31:18;6.90;99.90
3942;DHT22;1985;48.592;8.850;2024-02-26T04:33:44;7.00;99.90
3942;DHT22;1985;48.592;8.850;2024-02-26T04:36:16;7.10;99.90
3942;DHT22;1985;48.592;8.850;2024-02-26T04:38:45;7.20;99.90
3942;DHT22;1985;48.592;8.850;2024-02-26T04:41:11;7.20;99.90
3942;DHT22;1985;48.592;8.850;2024-02-26T04:43:37;7.20;99.90
3942;DHT22;1985;48.592;8.850;2024-02-26T04:46:07;7.20;99.90
3942;DHT22;1985;48.592;8.850;2024-02-26T04:48:34;7.10;99.90
3942;DHT22;1985;48.592;8.850;2024-02-26T04:51:00;7.10;99.90
3942;DHT22;1985;48.592;8.850;2024-02-26T04:53:26;6.90;99.90
3942;DHT22;1985;48.592;8.850;2024-02-26T04:55:52;6.70;99.90
3942;DHT22;1985;48.592;8.850;2024-02-26T04:58:18;6.60;99.90
3942;DHT22;1985;48.592;8.850;2024-02-26T05:00:44;6.70;99.90
3942;DHT22;1985;48.592;8.850;2024-02-26T05:03:09;6.70;99.90
3942;DHT22;1985;48.592;8.850;2024-02-26T05:05:43;6.60;99.90
3942;DHT22;1985;48.592;8.850;2024-02-26T05:08:08;6.20;99.90
3942;DHT22;1985;48.592;8.850;2024-02-26T05:10:34;6.10;99.90
3942;DHT22;1985;48.592;8.850;2024-02-26T05:13:04;6.00;99.90
3942;DHT22;1985;48.592;8.850;2024-02-26T05:15:30;6.20;99.90
3942;DHT22;1985;48.592;8.850;2024-02-26T05:17:56;6.30;99.90
3942;DHT22;1985;48.592;8.850;2024-02-26T05:20:21;6.40;99.90
3942;DHT22;1985;48.592;8.850;2024-02-26T05:22:47;6.50;99.90
3942;DHT22;1985;48.592;8.850;2024-02-26T05:25:15;6.70;99.90
3942;DHT22;1985;48.592;8.850;2024-02-26T05:27:42;6.80;99.90
3942;DHT22;1985;48.592;8.850;2024-02-26T05:30:09;6.90;99.90
3942;DHT22;1985;48.592;8.850;2024-02-26T05:32:35;6.90;99.90
3942;DHT22;1985;48.592;8.850;2024-02-26T05:35:01;7.00;99.90
3942;DHT22;1985;48.592;8.850;2024-02-26T05:37:29;6.90;99.90
3942;DHT22;1985;48.592;8.850;2024-02-26T05:39:55;7.00;99.90
3942;DHT22;1985;48.592;8.850;2024-02-26T05:42:20;7.00;99.90
3942;DHT22;1985;48.592;8.850;2024-02-26T05:44:46;7.00;99.90
3942;DHT22;1985;48.592;8.850;2024-02-26T05:47:12;7.00;99.90
3942;DHT22;1985;48.592;8.850;2024-02-26T05:49:39;7.00;99.90
3942;DHT22;1985;48.592;8.850;2024-02-26T05:52:05;7.10;99.90
3942;DHT22;1985;48.592;8.850;2024-02-26T05:54:31;7.10;99.90
3942;DHT22;1985;48.592;8.850;2024-02-26T05:56:57;7.10;99.90
3942;DHT22;1985;48.592;8.850;2024-02-26T05:59:23;7.00;99.90
3942;DHT22;1985;48.592;8.850;2024-02-26T06:01:49;7.00;99.90
3942;DHT22;1985;48.592;8.850;2024-02-26T06:04:15;7.10;99.90
3942;DHT22;1985;48.592;8.850;2024-02-26T06:06:40;7.00;99.90
3942;DHT22;1985;48.592;8.850;2024-02-26T06:09:06;7.10;99.90
3942;DHT22;1985;48.592;8.850;2024-02-26T06:11:32;7.00;99.90
3942;DHT22;1985;48.592;8.850;2024-02-26T06:13:57;7.00;99.90
3942;DHT22;1985;48.592;8.850;2024-02-26T06:16:23;6.90;99.90
3942;DHT22;1985;48.592;8.850;2024-02-26T06:18:49;6.60;99.90
3942;DHT22;1985;48.592;8.850;2024-02-26T06:21:15;6.40;99.90
3942;DHT22;1985;48.592;8.850;2024-02-26T06:23:40;6.30;99.90
3942;DHT22;1985;48.592;8.850;2024-02-26T06:26:06;6.20;99.90
3942;DHT22;1985;48.592;8.850;2024-02-26T06:28:32;6.30;99.90
3942;DHT22;1985;48.592;8.850;2024-02-26T06:30:59;6.20;99.90
3942;DHT22;1985;48.592;8.850;2024-02-26T06:33:25;6.30;99.90
3942;DHT22;1985;48.592;8.850;2024-02-26T06:35:50;6.30;99.90
3942;DHT22;1985;48.592;8.850;2024-02-26T06:38:16;6.40;99.90
3942;DHT22;1985;48.592;8.850;2024-02-26T06:40:43;6.50;99.90
3942;DHT22;1985;48.592;8.850;2024-02-26T06:43:09;6.70;99.90
3942;DHT22;1985;48.592;8.850;2024-02-26T06:45:34;6.60;99.90
3942;DHT22;1985;48.592;8.850;2024-02-26T06:48:00;6.60;99.90
3942;DHT22;1985;48.592;8.850;2024-02-26T06:50:26;6.70;99.90
3942;DHT22;1985;48.592;8.850;2024-02-26T06:52:52;6.60;99.90
3942;DHT22;1985;48.592;8.850;2024-02-26T06:55:17;6.70;99.90
3942;DHT22;1985;48.592;8.850;2024-02-26T06:57:43;6.70;99.90
3942;DHT22;1985;48.592;8.850;2024-02-26T07:00:09;6.80;99.90
3942;DHT22;1985;48.592;8.850;2024-02-26T07:02:39;6.80;99.90
3942;DHT22;1985;48.592;8.850;2024-02-26T07:05:06;6.80;99.90
3942;DHT22;1985;48.592;8.850;2024-02-26T07:07:31;6.80;99.90
3942;DHT22;1985;48.592;8.850;2024-02-26T07:09:57;6.90;99.90
3942;DHT22;1985;48.592;8.850;2024-02-26T07:12:23;6.90;99.90
3942;DHT22;1985;48.592;8.850;2024-02-26T07:14:49;6.90;99.90
3942;DHT22;1985;48.592;8.850;2024-02-26T07:17:15;7.00;99.90
3942;DHT22;1985;48.592;8.850;2024-02-26T07:19:42;7.10;99.90
3942;DHT22;1985;48.592;8.850;2024-02-26T07:22:07;7.20;99.90
3942;DHT22;1985;48.592;8.850;2024-02-26T07:24:33;7.30;99.90
3942;DHT22;1985;48.592;8.850;2024-02-26T07:26:59;7.40;99.90
3942;DHT22;1985;48.592;8.850;2024-02-26T07:29:25;7.50;99.90
3942;DHT22;1985;48.592;8.850;2024-02-26T07:31:50;7.50;99.90
3942;DHT22;1985;48.592;8.850;2024-02-26T07:34:16;7.50;99.90
3942;DHT22;1985;48.592;8.850;2024-02-26T07:36:42;7.60;99.90
3942;DHT22;1985;48.592;8.850;2024-02-26T07:39:08;7.60;99.90
3942;DHT22;1985;48.592;8.850;2024-02-26T07:41:33;7.70;99.90
3942;DHT22;1985;48.592;8.850;2024-02-26T07:43:59;7.70;99.90
3942;DHT22;1985;48.592;8.850;2024-02-26T07:46:25;7.60;99.90
3942;DHT22;1985;48.592;8.850;2024-02-26T07:48:51;7.40;99.90
3942;DHT22;1985;48.592;8.850;2024-02-26T07:51:16;7.20;99.90
3942;DHT22;1985;48.592;8.850;2024-02-26T07:53:42;7.10;99.90
3942;DHT22;1985;48.592;8.850;2024-02-26T07:56:09;7.00;99.90
3942;DHT22;1985;48.592;8.850;2024-02-26T07:58:35;6.90;99.90
3942;DHT22;1985;48.592;8.850;2024-02-26T08:01:00;6.90;99.90
3942;DHT22;1985;48.592;8.850;2024-02-26T08:03:26;6.70;99.90
3942;DHT22;1985;48.592;8.850;2024-02-26T08:05:52;6.70;99.90
3942;DHT22;1985;48.592;8.850;2024-02-26T08:08:17;6.70;99.90
3942;DHT22;1985;48.592;8.850;2024-02-26T08:10:43;6.70;99.90
3942;DHT22;1985;48.592;8.850;2024-02-26T08:13:09;6.70;99.90
3942;DHT22;1985;48.592;8.850;2024-02-26T08:15:35;6.90;99.90
3942;DHT22;1985;48.592;8.850;2024-02-26T08:18:03;6.90;99.90
3942;DHT22;1985;48.592;8.850;2024-02-26T08:20:32;6.90;99.90
3942;DHT22;1985;48.592;8.850;2024-02-26T08:22:58;6.80;99.90
3942;DHT22;1985;48.592;8.850;2024-02-26T08:25:24;6.80;99.90
3942;DHT22;1985;48.592;8.850;2024-02-26T08:27:50;7.00;99.90
3942;DHT22;1985;48.592;8.850;2024-02-26T08:30:16;7.00;99.90
3942;DHT22;1985;48.592;8.850;2024-02-26T08:32:48;7.00;99.90
3942;DHT22;1985;48.592;8.850;2024-02-26T08:35:14;7.00;99.90
3942;DHT22;1985;48.592;8.850;2024-02-26T08:37:40;7.00;99.90
3942;DHT22;1985;48.592;8.850;2024-02-26T08:40:09;7.00;99.90
3942;DHT22;1985;48.592;8.850;2024-02-26T08:42:35;7.20;99.90
3942;DHT22;1985;48.592;8.850;2024-02-26T08:45:01;7.20;99.90
3942;DHT22;1985;48.592;8.850;2024-02-26T08:47:27;7.20;99.90
3942;DHT22;1985;48.592;8.850;2024-02-26T08:49:53;7.10;99.90
3942;DHT22;1985;48.592;8.850;2024-02-26T08:52:19;7.20;99.90
3942;DHT22;1985;48.592;8.850;2024-02-26T08:54:45;7.20;99.90
3942;DHT22;1985;48.592;8.850;2024-02-26T08:57:11;7.10;99.90
3942;DHT22;1985;48.592;8.850;2024-02-26T08:59:36;7.20;99.90
3942;DHT22;1985;48.592;8.850;2024-02-26T09:02:02;7.30;99.90
3942;DHT22;1985;48.592;8.850;2024-02-26T09:04:28;7.50;99.90
3942;DHT22;1985;48.592;8.850;2024-02-26T09:06:53;7.80;99.90
3942;DHT22;1985;48.592;8.850;2024-02-26T09:09:20;8.00;99.90
3942;DHT22;1985;48.592;8.850;2024-02-26T09:11:47;8.10;99.90
3942;DHT22;1985;48.592;8.850;2024-02-26T09:14:14;8.30;99.90
3942;DHT22;1985;48.592;8.850;2024-02-26T09:16:39;8.60;99.90
3942;DHT22;1985;48.592;8.850;2024-02-26T09:19:05;8.80;99.90
3942;DHT22;1985;48.592;8.850;2024-02-26T09:21:30;8.90;99.90
3942;DHT22;1985;48.592;8.850;2024-02-26T09:23:56;8.80;99.90
3942;DHT22;1985;48.592;8.850;2024-02-26T09:26:22;8.30;99.90
3942;DHT22;1985;48.592;8.850;2024-02-26T09:28:47;8.50;99.90
3942;DHT22;1985;48.592;8.850;2024-02-26T09:31:15;8.80;99.90
3942;DHT22;1985;48.592;8.850;2024-02-26T09:33:42;9.10;99.90
3942;DHT22;1985;48.592;8.850;2024-02-26T09:36:07;9.40;99.90
3942;DHT22;1985;48.592;8.850;2024-02-26T09:38:35;9.70;99.90
3942;DHT22;1985;48.592;8.850;2024-02-26T09:41:04;10.10;99.90
3942;DHT22;1985;48.592;8.850;2024-02-26T09:43:35;10.50;99.90
3942;DHT22;1985;48.592;8.850;2024-02-26T09:46:05;10.90;99.90
3942;DHT22;1985;48.592;8.850;2024-02-26T09:48:32;11.30;99.90
3942;DHT22;1985;48.592;8.850;2024-02-26T09:51:01;11.40;99.90
3942;DHT22;1985;48.592;8.850;2024-02-26T09:53:28;11.50;99.90
3942;DHT22;1985;48.592;8.850;2024-02-26T09:55:54;11.90;99.90
3942;DHT22;1985;48.592;8.850;2024-02-26T09:58:20;12.20;99.90
3942;DHT22;1985;48.592;8.850;2024-02-26T10:00:53;12.30;99.90
3942;DHT22;1985;48.592;8.850;2024-02-26T10:03:22;12.30;99.90
3942;DHT22;1985;48.592;8.850;2024-02-26T10:05:51;12.30;99.90
3942;DHT22;1985;48.592;8.850;2024-02-26T10:08:21;12.30;99.90
3942;DHT22;1985;48.592;8.850;2024-02-26T10:10:47;12.20;99.90
3942;DHT22;1985;48.592;8.850;2024-02-26T10:13:14;12.20;99.90
3942;DHT22;1985;48.592;8.850;2024-02-26T10:15:40;12.20;99.90
3942;DHT22;1985;48.592;8.850;2024-02-26T10:18:06;12.20;99.90
3942;DHT22;1985;48.592;8.850;2024-02-26T10:20:32;12.10;99.90
3942;DHT22;1985;48.592;8.850;2024-02-26T10:23:02;11.70;99.90
3942;DHT22;1985;48.592;8.850;2024-02-26T10:25:28;11.60;99.90
3942;DHT22;1985;48.592;8.850;2024-02-26T10:27:53;11.80;99.90
3942;DHT22;1985;48.592;8.850;2024-02-26T10:30:20;11.90;99.90
3942;DHT22;1985;48.592;8.850;2024-02-26T10:32:48;12.10;99.90
3942;DHT22;1985;48.592;8.850;2024-02-26T10:35:14;12.30;99.90
3942;DHT22;1985;48.592;8.850;2024-02-26T10:37:41;12.40;99.90
3942;DHT22;1985;48.592;8.850;2024-02-26T10:40:13;12.60;99.90
3942;DHT22;1985;48.592;8.850;2024-02-26T10:42:40;12.70;99.90
3942;DHT22;1985;48.592;8.850;2024-02-26T10:45:07;12.70;99.90
3942;DHT22;1985;48.592;8.850;2024-02-26T10:47:35;12.80;99.90
3942;DHT22;1985;48.592;8.850;2024-02-26T10:50:05;13.00;99.90
3942;DHT22;1985;48.592;8.850;2024-02-26T10:52:32;13.30;99.90
3942;DHT22;1985;48.592;8.850;2024-02-26T10:55:04;13.50;99.90
3942;DHT22;1985;48.592;8.850;2024-02-26T10:57:36;13.70;99.90
3942;DHT22;1985;48.592;8.850;2024-02-26T11:00:04;14.00;99.90
3942;DHT22;1985;48.592;8.850;2024-02-26T11:02:36;14.40;99.90
3942;DHT22;1985;48.592;8.850;2024-02-26T11:05:05;15.00;99.90
3942;DHT22;1985;48.592;8.850;2024-02-26T11:07:32;15.60;99.90
3942;DHT22;1985;48.592;8.850;2024-02-26T11:10:05;15.90;99.70
3942;DHT22;1985;48.592;8.850;2024-02-26T11:12:35;16.00;98.40
3942;DHT22;1985;48.592;8.850;2024-02-26T11:15:03;16.00;98.10
3942;DHT22;1985;48.592;8.850;2024-02-26T11:17:29;16.10;97.40
3942;DHT22;1985;48.592;8.850;2024-02-26T11:19:59;16.30;96.80
3942;DHT22;1985;48.592;8.850;2024-02-26T11:22:27;16.30;94.20
3942;DHT22;1985;48.592;8.850;2024-02-26T11:24:55;17.10;94.30
3942;DHT22;1985;48.592;8.850;2024-02-26T11:27:40;17.60;93.40
3942;DHT22;1985;48.592;8.850;2024-02-26T11:30:12;17.70;92.50
3942;DHT22;1985;48.592;8.850;2024-02-26T11:32:38;17.40;90.00
3942;DHT22;1985;48.592;8.850;2024-02-26T11:35:07;17.00;90.60
3942;DHT22;1985;48.592;8.850;2024-02-26T11:37:35;17.00;90.60
3942;DHT22;1985;48.592;8.850;2024-02-26T11:40:01;16.80;90.00
3942;DHT22;1985;48.592;8.850;2024-02-26T11:42:27;16.60;91.00
3942;DHT22;1985;48.592;8.850;2024-02-26T11:44:55;16.50;90.80
3942;DHT22;1985;48.592;8.850;2024-02-26T11:47:27;16.40;91.50
3942;DHT22;1985;48.592;8.850;2024-02-26T11:49:52;16.20;91.60
3942;DHT22;1985;48.592;8.850;2024-02-26T11:52:18;15.60;91.00
3942;DHT22;1985;48.592;8.850;2024-02-26T11:54:53;15.40;92.50
3942;DHT22;1985;48.592;8.850;2024-02-26T11:57:40;14.90;92.70
3942;DHT22;1985;48.592;8.850;2024-02-26T12:02:47;13.40;94.20
3942;DHT22;1985;48.592;8.850;2024-02-26T12:07:49;12.60;97.30
3942;DHT22;1985;48.592;8.850;2024-02-26T12:10:17;12.60;97.80
3942;DHT22;1985;48.592;8.850;2024-02-26T12:12:46;12.80;98.80
3942;DHT22;1985;48.592;8.850;2024-02-26T12:15:12;12.90;99.20
3942;DHT22;1985;48.592;8.850;2024-02-26T12:17:40;12.90;98.50
3942;DHT22;1985;48.592;8.850;2024-02-26T12:20:13;13.00;98.90
3942;DHT22;1985;48.592;8.850;2024-02-26T12:22:40;13.20;98.00
3942;DHT22;1985;48.592;8.850;2024-02-26T12:25:08;13.60;98.40
3942;DHT22;1985;48.592;8.850;2024-02-26T12:27:35;14.10;98.60
3942;DHT22;1985;48.592;8.850;2024-02-26T12:30:02;14.60;97.90
3942;DHT22;1985;48.592;8.850;2024-02-26T12:32:28;14.80;95.60
3942;DHT22;1985;48.592;8.850;2024-02-26T12:34:54;14.80;94.90
3942;DHT22;1985;48.592;8.850;2024-02-26T12:37:20;14.90;95.60
3942;DHT22;1985;48.592;8.850;2024-02-26T12:39:46;14.90;95.70
3942;DHT22;1985;48.592;8.850;2024-02-26T12:42:11;15.00;95.80
3942;DHT22;1985;48.592;8.850;2024-02-26T12:44:37;15.30;95.60
3942;DHT22;1985;48.592;8.850;2024-02-26T12:47:04;15.50;94.90
3942;DHT22;1985;48.592;8.850;2024-02-26T12:49:29;16.00;93.90
3942;DHT22;1985;48.592;8.850;2024-02-26T12:51:55;16.70;93.40
3942;DHT22;1985;48.592;8.850;2024-02-26T12:54:28;17.40;90.50
3942;DHT22;1985;48.592;8.850;2024-02-26T12:56:54;18.40;90.30
3942;DHT22;1985;48.592;8.850;2024-02-26T12:59:20;19.30;80.10
3942;DHT22;1985;48.592;8.850;2024-02-26T13:01:46;19.20;76.60
3942;DHT22;1985;48.592;8.850;2024-02-26T13:04:12;19.60;77.00
3942;DHT22;1985;48.592;8.850;2024-02-26T13:06:38;19.90;76.20
3942;DHT22;1985;48.592;8.850;2024-02-26T13:09:04;19.70;75.80
3942;DHT22;1985;48.592;8.850;2024-02-26T13:11:30;19.50;76.10
3942;DHT22;1985;48.592;8.850;2024-02-26T13:13:56;19.10;72.40
3942;DHT22;1985;48.592;8.850;2024-02-26T13:16:24;18.60;73.10
3942;DHT22;1985;48.592;8.850;2024-02-26T13:18:51;18.10;75.40
3942;DHT22;1985;48.592;8.850;2024-02-26T13:21:18;17.80;77.70
3942;DHT22;1985;48.592;8.850;2024-02-26T13:23:48;17.90;78.00
3942;DHT22;1985;48.592;8.850;2024-02-26T13:26:14;18.20;78.00
3942;DHT22;1985;48.592;8.850;2024-02-26T13:28:40;18.40;77.20
3942;DHT22;1985;48.592;8.850;2024-02-26T13:31:06;18.30;76.80
3942;DHT22;1985;48.592;8.850;2024-02-26T13:33:33;18.00;76.40
3942;DHT22;1985;48.592;8.850;2024-02-26T13:35:59;17.80;76.90
3942;DHT22;1985;48.592;8.850;2024-02-26T13:38:26;17.50;76.50
3942;DHT22;1985;48.592;8.850;2024-02-26T13:40:52;17.10;73.30
3942;DHT22;1985;48.592;8.850;2024-02-26T13:43:19;16.70;74.10
3942;DHT22;1985;48.592;8.850;2024-02-26T13:45:45;16.80;74.40
3942;DHT22;1985;48.592;8.850;2024-02-26T13:48:12;16.90;74.90
3942;DHT22;1985;48.592;8.850;2024-02-26T13:50:39;17.10;75.20
3942;DHT22;1985;48.592;8.850;2024-02-26T13:53:05;17.30;74.10
3942;DHT22;1985;48.592;8.850;2024-02-26T13:55:31;17.20;74.00
3942;DHT22;1985;48.592;8.850;2024-02-26T13:57:58;17.20;74.80
3942;DHT22;1985;48.592;8.850;2024-02-26T14:00:26;17.40;75.00
3942;DHT22;1985;48.592;8.850;2024-02-26T14:02:52;17.30;73.10
3942;DHT22;1985;48.592;8.850;2024-02-26T14:05:17;16.90;73.50
3942;DHT22;1985;48.592;8.850;2024-02-26T14:07:43;16.70;73.60
3942;DHT22;1985;48.592;8.850;2024-02-26T14:10:12;16.20;75.30
3942;DHT22;1985;48.592;8.850;2024-02-26T14:12:38;15.90;76.30
3942;DHT22;1985;48.592;8.850;2024-02-26T14:15:07;16.00;76.40
3942;DHT22;1985;48.592;8.850;2024-02-26T14:17:34;16.30;76.00
3942;DHT22;1985;48.592;8.850;2024-02-26T14:19:59;16.40;76.90
3942;DHT22;1985;48.592;8.850;2024-02-26T14:22:25;16.40;74.20
3942;DHT22;1985;48.592;8.850;2024-02-26T14:24:56;16.20;75.90
3942;DHT22;1985;48.592;8.850;2024-02-26T14:27:21;16.00;74.30
3942;DHT22;1985;48.592;8.850;2024-02-26T14:29:48;16.10;74.60
3942;DHT22;1985;48.592;8.850;2024-02-26T14:32:13;16.10;74.00
3942;DHT22;1985;48.592;8.850;2024-02-26T14:34:39;15.70;74.80
3942;DHT22;1985;48.592;8.850;2024-02-26T14:37:05;15.70;74.60
3942;DHT22;1985;48.592;8.850;2024-02-26T14:39:32;15.50;75.20
3942;DHT22;1985;48.592;8.850;2024-02-26T14:41:58;15.70;75.90
3942;DHT22;1985;48.592;8.850;2024-02-26T14:44:24;15.50;74.20
3942;DHT22;1985;48.592;8.850;2024-02-26T14:46:50;15.20;75.50
3942;DHT22;1985;48.592;8.850;2024-02-26T14:49:16;15.00;75.70
3942;DHT22;1985;48.592;8.850;2024-02-26T14:51:42;14.70;75.90
3942;DHT22;1985;48.592;8.850;2024-02-26T14:54:13;14.30;76.10
3942;DHT22;1985;48.592;8.850;2024-02-26T14:56:39;13.90;77.50
3942;DHT22;1985;48.592;8.850;2024-02-26T14:59:04;14.00;78.60
3942;DHT22;1985;48.592;8.850;2024-02-26T15:01:30;14.00;79.10
3942;DHT22;1985;48.592;8.850;2024-02-26T15:03:56;13.90;78.60
3942;DHT22;1985;48.592;8.850;2024-02-26T15:06:22;13.60;79.10
3942;DHT22;1985;48.592;8.850;2024-02-26T15:08:48;13.70;80.00
3942;DHT22;1985;48.592;8.850;2024-02-26T15:11:14;13.70;79.90
3942;DHT22;1985;48.592;8.850;2024-02-26T15:13:40;13.70;80.50
3942;DHT22;1985;48.592;8.850;2024-02-26T15:16:06;13.50;79.20
3942;DHT22;1985;48.592;8.850;2024-02-26T15:18:32;13.40;80.10
3942;DHT22;1985;48.592;8.850;2024-02-26T15:20:57;13.50;80.30
3942;DHT22;1985;48.592;8.850;2024-02-26T15:23:23;13.40;79.70
3942;DHT22;1985;48.592;8.850;2024-02-26T15:25:49;13.20;80.10
3942;DHT22;1985;48.592;8.850;2024-02-26T15:28:15;13.00;80.90
3942;DHT22;1985;48.592;8.850;2024-02-26T15:30:41;13.00;81.70
3942;DHT22;1985;48.592;8.850;2024-02-26T15:33:07;13.00;82.00
3942;DHT22;1985;48.592;8.850;2024-02-26T15:35:34;13.20;82.50
3942;DHT22;1985;48.592;8.850;2024-02-26T15:38:00;13.10;81.30
3942;DHT22;1985;48.592;8.850;2024-02-26T15:40:26;13.10;81.90
3942;DHT22;1985;48.592;8.850;2024-02-26T15:42:52;13.10;82.10
3942;DHT22;1985;48.592;8.850;2024-02-26T15:45:18;13.10;81.50
3942;DHT22;1985;48.592;8.850;2024-02-26T15:47:44;13.00;80.60
3942;DHT22;1985;48.592;8.850;2024-02-26T15:50:10;12.90;80.50
3942;DHT22;1985;48.592;8.850;2024-02-26T15:52:39;12.70;81.80
3942;DHT22;1985;48.592;8.850;2024-02-26T15:55:05;12.60;82.80
3942;DHT22;1985;48.592;8.850;2024-02-26T15:57:31;12.60;83.70
3942;DHT22;1985;48.592;8.850;2024-02-26T15:59:57;12.80;83.40
3942;DHT22;1985;48.592;8.850;2024-02-26T16:02:26;12.50;83.30
3942;DHT22;1985;48.592;8.850;2024-02-26T16:04:52;12.50;83.80
3942;DHT22;1985;48.592;8.850;2024-02-26T16:07:34;12.50;83.80
3942;DHT22;1985;48.592;8.850;2024-02-26T16:10:00;12.50;83.80
3942;DHT22;1985;48.592;8.850;2024-02-26T16:15:03;12.50;84.20